createdAt,value
2022-08-30T00:00:41.143Z,100792.50
2022-08-30T00:03:11.196Z,100790.25
2022-08-30T00:05:39.893Z,100778.44
2022-08-30T00:08:08.118Z,100781.25
2022-08-30T00:10:38.208Z,100771.53
2022-08-30T00:13:07.784Z,100769.38
2022-08-30T00:15:36.195Z,100786.06
2022-08-30T00:18:04.169Z,100783.06
2022-08-30T00:20:34.439Z,100780.13
2022-08-30T00:23:03.230Z,100776.69
2022-08-30T00:25:31.372Z,100780.44
2022-08-30T00:28:00.699Z,100786.00
2022-08-30T00:30:28.561Z,100784.34
2022-08-30T00:32:56.454Z,100776.59
2022-08-30T00:35:25.139Z,100775.53
2022-08-30T00:37:53.079Z,100780.25
2022-08-30T00:40:27.263Z,100779.81
2022-08-30T00:42:59.303Z,100780.44
2022-08-30T00:45:33.172Z,100774.50
2022-08-30T00:48:01.973Z,100759.53
2022-08-30T00:50:35.023Z,100769.88
2022-08-30T00:53:06.794Z,100780.44
2022-08-30T00:55:34.942Z,100777.84
2022-08-30T00:58:09.889Z,100782.38
2022-08-30T01:00:39.391Z,100786.78
2022-08-30T01:03:09.285Z,100790.84
2022-08-30T01:05:39.694Z,100782.75
2022-08-30T01:08:07.730Z,100790.84
2022-08-30T01:10:37.789Z,100803.09
2022-08-30T01:13:06.392Z,100785.00
2022-08-30T01:15:34.781Z,100799.28
2022-08-30T01:18:06.887Z,100797.00
2022-08-30T01:20:44.792Z,100786.28
2022-08-30T01:23:16.847Z,100796.63
2022-08-30T01:25:48.413Z,100784.50
2022-08-30T01:28:20.957Z,100793.59
2022-08-30T01:30:49.457Z,100792.75
2022-08-30T01:33:20.053Z,100796.56
2022-08-30T01:35:52.854Z,100795.16
2022-08-30T01:38:25.810Z,100791.47
2022-08-30T01:40:59.511Z,100775.97
2022-08-30T01:43:28.931Z,100787.66
2022-08-30T01:45:56.992Z,100775.28
2022-08-30T01:48:30.865Z,100785.28
2022-08-30T01:50:59.997Z,100784.09
2022-08-30T01:53:29.681Z,100776.94
2022-08-30T01:55:57.557Z,100771.13
2022-08-30T01:58:25.766Z,100781.47
2022-08-30T02:00:54.752Z,100777.63
2022-08-30T02:03:23.029Z,100774.56
2022-08-30T02:05:51.095Z,100771.59
2022-08-30T02:08:18.995Z,100777.28
2022-08-30T02:10:48.240Z,100775.28
2022-08-30T02:13:16.219Z,100766.94
2022-08-30T02:15:44.271Z,100775.88
2022-08-30T02:18:12.199Z,100778.47
2022-08-30T02:20:41.062Z,100780.88
2022-08-30T02:23:09.179Z,100771.22
2022-08-30T02:25:37.025Z,100761.34
2022-08-30T02:28:07.276Z,100776.81
2022-08-30T02:30:36.769Z,100775.63
2022-08-30T02:33:05.383Z,100776.81
2022-08-30T02:35:33.430Z,100779.06
2022-08-30T02:38:01.402Z,100786.78
2022-08-30T02:40:29.433Z,100768.00
2022-08-30T02:42:57.545Z,100781.31
2022-08-30T02:45:27.873Z,100770.59
2022-08-30T02:47:56.592Z,100763.09
2022-08-30T02:50:25.302Z,100778.19
2022-08-30T02:52:53.389Z,100777.00
2022-08-30T02:55:23.924Z,100779.63
2022-08-30T02:57:51.823Z,100773.94
2022-08-30T03:00:21.742Z,100783.06
2022-08-30T03:02:51.041Z,100773.69
2022-08-30T03:05:19.050Z,100766.91
2022-08-30T03:07:47.589Z,100767.59
2022-08-30T03:10:16.410Z,100765.09
2022-08-30T03:12:44.692Z,100770.25
2022-08-30T03:15:14.186Z,100771.69
2022-08-30T03:17:42.643Z,100762.53
2022-08-30T03:20:13.995Z,100775.28
2022-08-30T03:22:42.162Z,100766.94
2022-08-30T03:25:10.459Z,100767.41
2022-08-30T03:27:38.682Z,100763.84
2022-08-30T03:30:08.207Z,100764.97
2022-08-30T03:32:36.860Z,100760.41
2022-08-30T03:35:05.653Z,100740.41
2022-08-30T03:37:35.686Z,100754.00
2022-08-30T03:40:04.449Z,100768.38
2022-08-30T03:42:34.732Z,100760.97
2022-08-30T03:45:03.396Z,100748.03
2022-08-30T03:47:32.039Z,100755.53
2022-08-30T03:49:59.995Z,100752.22
2022-08-30T03:52:28.260Z,100739.56
2022-08-30T03:54:57.606Z,100755.06
2022-08-30T03:57:25.709Z,100763.25
2022-08-30T03:59:53.791Z,100743.50
2022-08-30T04:02:21.972Z,100771.19
2022-08-30T04:04:50.111Z,100760.75
2022-08-30T04:07:19.187Z,100736.72
2022-08-30T04:09:47.268Z,100732.44
2022-08-30T04:12:18.398Z,100746.97
2022-08-30T04:14:50.918Z,100736.22
2022-08-30T04:17:18.954Z,100773.28
2022-08-30T04:19:46.926Z,100762.13
2022-08-30T04:22:14.932Z,100743.81
2022-08-30T04:24:42.935Z,100751.50
2022-08-30T04:27:11.932Z,100770.38
2022-08-30T04:29:41.599Z,100758.16
2022-08-30T04:32:09.976Z,100769.50
2022-08-30T04:34:39.414Z,100757.38
2022-08-30T04:37:13.666Z,100774.06
2022-08-30T04:39:47.556Z,100752.09
2022-08-30T04:42:23.139Z,100763.38
2022-08-30T04:45:06.733Z,100773.72
2022-08-30T04:47:39.892Z,100773.84
2022-08-30T04:50:18.170Z,100776.34
2022-08-30T04:52:48.314Z,100755.09
2022-08-30T04:55:20.176Z,100779.56
2022-08-30T04:57:50.396Z,100785.00
2022-08-30T05:00:22.519Z,100773.59
2022-08-30T05:02:52.193Z,100789.31
2022-08-30T05:05:48.840Z,100785.59
2022-08-30T05:08:24.482Z,100796.78
2022-08-30T05:10:54.410Z,100786.53
2022-08-30T05:13:35.149Z,100772.63
2022-08-30T05:16:08.338Z,100792.31
2022-08-30T05:18:44.202Z,100781.13
2022-08-30T05:21:16.667Z,100787.06
2022-08-30T05:23:46.203Z,100779.00
2022-08-30T05:26:21.482Z,100789.19
2022-08-30T05:28:50.047Z,100802.47
2022-08-30T05:31:21.529Z,100793.56
2022-08-30T05:33:51.977Z,100788.56
2022-08-30T05:36:22.653Z,100810.78
2022-08-30T05:38:51.120Z,100784.75
2022-08-30T05:41:20.497Z,100812.91
2022-08-30T05:43:49.188Z,100807.94
2022-08-30T05:46:22.034Z,100811.66
2022-08-30T05:48:50.875Z,100810.84
2022-08-30T05:51:21.027Z,100801.72
2022-08-30T05:53:51.329Z,100805.13
2022-08-30T05:56:25.218Z,100801.66
2022-08-30T05:58:55.390Z,100810.75
2022-08-30T06:01:29.465Z,100808.19
2022-08-30T06:04:03.936Z,100813.84
2022-08-30T06:06:35.706Z,100806.56
2022-08-30T06:09:06.054Z,100823.38
2022-08-30T06:11:35.333Z,100804.66
2022-08-30T06:14:04.254Z,100818.41
2022-08-30T06:16:35.618Z,100800.69
2022-08-30T06:19:03.533Z,100820.31
2022-08-30T06:21:34.483Z,100815.06
2022-08-30T06:24:04.791Z,100816.63
2022-08-30T06:26:33.694Z,100794.19
2022-08-30T06:29:01.665Z,100789.25
2022-08-30T06:31:29.665Z,100793.25
2022-08-30T06:33:59.031Z,100810.75
2022-08-30T06:36:27.368Z,100803.72
2022-08-30T06:38:57.591Z,100810.75
2022-08-30T06:41:27.765Z,100807.06
2022-08-30T06:43:56.615Z,100809.91
2022-08-30T06:46:27.330Z,100813.34
2022-08-30T06:48:56.744Z,100811.63
2022-08-30T06:51:28.343Z,100805.47
2022-08-30T06:53:58.016Z,100802.03
2022-08-30T06:56:27.634Z,100805.53
2022-08-30T06:58:55.909Z,100805.66
2022-08-30T07:01:26.057Z,100811.84
2022-08-30T07:03:55.451Z,100815.38
2022-08-30T07:06:26.253Z,100818.16
2022-08-30T07:08:56.086Z,100806.75
2022-08-30T07:11:35.649Z,100809.59
2022-08-30T07:14:07.765Z,100800.28
2022-08-30T07:16:36.193Z,100801.06
2022-08-30T07:19:04.762Z,100810.53
2022-08-30T07:21:37.271Z,100816.72
2022-08-30T07:24:08.873Z,100812.81
2022-08-30T07:26:39.554Z,100825.47
2022-08-30T07:29:07.879Z,100826.69
2022-08-30T07:31:36.172Z,100823.06
2022-08-30T07:34:04.465Z,100820.59
2022-08-30T07:36:34.195Z,100824.19
2022-08-30T07:39:02.066Z,100820.41
2022-08-30T07:41:34.166Z,100826.81
2022-08-30T07:44:03.075Z,100816.41
2022-08-30T07:46:31.035Z,100815.03
2022-08-30T07:49:01.843Z,100827.16
2022-08-30T07:51:32.842Z,100821.09
2022-08-30T07:54:02.331Z,100819.16
2022-08-30T07:56:30.794Z,100823.56
2022-08-30T07:58:58.800Z,100821.66
2022-08-30T08:01:26.761Z,100806.19
2022-08-30T08:03:54.695Z,100816.91
2022-08-30T08:06:24.257Z,100825.78
2022-08-30T08:08:54.375Z,100816.09
2022-08-30T08:11:28.455Z,100815.78
2022-08-30T08:13:59.801Z,100825.06
2022-08-30T08:16:31.125Z,100825.97
2022-08-30T08:18:59.291Z,100820.38
2022-08-30T08:21:28.077Z,100827.38
2022-08-30T08:23:56.544Z,100828.72
2022-08-30T08:26:25.827Z,100829.88
2022-08-30T08:28:53.819Z,100827.16
2022-08-30T08:31:27.104Z,100829.59
2022-08-30T08:33:58.699Z,100830.44
2022-08-30T08:36:27.121Z,100829.81
2022-08-30T08:38:55.338Z,100826.00
2022-08-30T08:41:37.930Z,100826.84
2022-08-30T08:44:09.713Z,100820.47
2022-08-30T08:46:45.610Z,100824.38
2022-08-30T08:49:14.121Z,100818.22
2022-08-30T08:51:59.827Z,100823.06
2022-08-30T08:54:34.262Z,100826.31
2022-08-30T08:57:03.711Z,100818.34
2022-08-30T08:59:31.995Z,100815.84
2022-08-30T09:02:03.173Z,100806.53
2022-08-30T09:04:35.405Z,100815.72
2022-08-30T09:07:06.646Z,100808.44
2022-08-30T09:09:37.336Z,100804.91
2022-08-30T09:12:08.334Z,100803.75
2022-08-30T09:14:44.289Z,100797.66
2022-08-30T09:17:15.335Z,100800.59
2022-08-30T09:19:46.101Z,100799.56
2022-08-30T09:22:26.320Z,100791.47
2022-08-30T09:24:56.682Z,100790.78
2022-08-30T09:27:30.253Z,100787.75
2022-08-30T09:30:01.995Z,100787.69
2022-08-30T09:32:33.841Z,100781.19
2022-08-30T09:35:01.729Z,100768.06
2022-08-30T09:37:46.775Z,100770.34
2022-08-30T09:40:23.255Z,100775.09
2022-08-30T09:43:08.395Z,100768.00
2022-08-30T09:45:39.683Z,100769.00
2022-08-30T09:48:32.939Z,100769.06
2022-08-30T09:51:21.607Z,100765.41
2022-08-30T09:54:17.038Z,100759.59
2022-08-30T09:56:55.122Z,100745.53
2022-08-30T09:59:37.908Z,100745.84
2022-08-30T10:02:22.471Z,100752.84
2022-08-30T10:05:00.834Z,100746.59
2022-08-30T10:07:34.760Z,100745.84
2022-08-30T10:10:12.112Z,100742.41
2022-08-30T10:12:50.615Z,100731.97
2022-08-30T10:15:25.511Z,100733.75
2022-08-30T10:18:02.686Z,100729.03
2022-08-30T10:20:34.587Z,100727.44
2022-08-30T10:23:09.308Z,100720.88
2022-08-30T10:25:41.456Z,100718.56
2022-08-30T10:28:15.710Z,100711.38
2022-08-30T10:30:49.147Z,100719.91
2022-08-30T10:33:25.435Z,100713.00
2022-08-30T10:35:57.864Z,100722.00
2022-08-30T10:38:30.478Z,100714.44
2022-08-30T10:41:17.233Z,100706.63
2022-08-30T10:43:54.088Z,100704.44
2022-08-30T10:46:30.862Z,100706.09
2022-08-30T10:49:02.177Z,100698.88
2022-08-30T10:51:36.975Z,100696.91
2022-08-30T10:54:11.093Z,100689.41
2022-08-30T10:56:41.946Z,100695.09
2022-08-30T10:59:11.955Z,100693.31
2022-08-30T11:02:17.708Z,100682.03
2022-08-30T11:05:13.570Z,100694.72
2022-08-30T11:07:52.138Z,100677.16
2022-08-30T11:10:34.952Z,100688.25
2022-08-30T11:13:06.444Z,100676.53
2022-08-30T11:15:37.687Z,100684.53
2022-08-30T11:18:13.969Z,100687.41
2022-08-30T11:20:46.909Z,100679.13
2022-08-30T11:23:25.320Z,100672.66
2022-08-30T11:25:57.514Z,100666.72
2022-08-30T11:29:01.203Z,100674.91
2022-08-30T11:31:35.128Z,100673.72
2022-08-30T11:34:05.061Z,100670.44
2022-08-30T11:37:09.747Z,100665.50
2022-08-30T11:39:54.844Z,100661.72
2022-08-30T11:42:42.149Z,100666.78
2022-08-30T11:45:45.668Z,100658.03
2022-08-30T11:48:47.045Z,100656.81
2022-08-30T11:52:23.808Z,100655.16
2022-08-30T11:54:54.524Z,100651.63
2022-08-30T11:57:28.927Z,100655.41
2022-08-30T12:00:06.780Z,100651.06
2022-08-30T12:02:48.869Z,100640.84
2022-08-30T12:05:49.377Z,100629.22
2022-08-30T12:09:02.658Z,100629.03
2022-08-30T12:12:03.100Z,100631.19
2022-08-30T12:14:44.587Z,100629.41
2022-08-30T12:17:36.667Z,100626.59
2022-08-30T12:20:06.951Z,100629.84
2022-08-30T12:22:37.757Z,100635.63
2022-08-30T12:25:18.333Z,100635.13
2022-08-30T12:27:47.845Z,100625.63
2022-08-30T12:30:15.990Z,100622.81
2022-08-30T12:32:47.582Z,100624.94
2022-08-30T12:35:22.512Z,100624.13
2022-08-30T12:37:59.033Z,100610.31
2022-08-30T12:40:27.328Z,100601.47
2022-08-30T12:42:58.738Z,100613.78
2022-08-30T12:45:30.125Z,100608.03
2022-08-30T12:48:00.509Z,100612.91
2022-08-30T12:50:31.610Z,100607.31
2022-08-30T12:53:02.880Z,100613.03
2022-08-30T12:55:34.350Z,100602.31
2022-08-30T12:58:07.405Z,100606.81
2022-08-30T13:00:37.758Z,100604.13
2022-08-30T13:03:16.301Z,100595.53
2022-08-30T13:05:52.824Z,100586.88
2022-08-30T13:08:25.309Z,100597.00
2022-08-30T13:10:58.110Z,100590.38
2022-08-30T13:13:38.529Z,100588.50
2022-08-30T13:16:13.055Z,100589.56
2022-08-30T13:18:41.395Z,100581.59
2022-08-30T13:21:22.857Z,100579.09
2022-08-30T13:23:58.161Z,100578.69
2022-08-30T13:26:27.487Z,100573.56
2022-08-30T13:28:58.974Z,100567.63
2022-08-30T13:31:29.292Z,100565.16
2022-08-30T13:34:02.141Z,100569.09
2022-08-30T13:36:32.263Z,100569.25
2022-08-30T13:39:01.809Z,100564.41
2022-08-30T13:41:34.131Z,100565.03
2022-08-30T13:44:13.553Z,100546.53
2022-08-30T13:46:51.024Z,100546.66
2022-08-30T13:52:20.949Z,100544.22
2022-08-30T13:54:50.297Z,100543.91
2022-08-30T14:00:17.275Z,100535.22
2022-08-30T14:02:50.370Z,100537.06
2022-08-30T14:11:02.205Z,100517.81
2022-08-30T14:13:30.798Z,100533.09
2022-08-30T14:18:50.567Z,100522.50
2022-08-30T14:21:21.519Z,100525.16
2022-08-30T14:23:53.276Z,100520.47
2022-08-30T14:26:22.961Z,100520.72
2022-08-30T14:28:52.289Z,100514.75
2022-08-30T14:31:22.029Z,100518.72
2022-08-30T14:33:50.104Z,100506.75
2022-08-30T14:36:18.565Z,100483.16
2022-08-30T14:38:46.697Z,100489.41
2022-08-30T14:41:16.536Z,100497.31
2022-08-30T14:43:44.837Z,100486.47
2022-08-30T14:46:12.905Z,100488.78
2022-08-30T14:48:43.038Z,100475.66
2022-08-30T14:51:16.699Z,100472.19
2022-08-30T14:53:44.974Z,100470.28
2022-08-30T14:56:19.499Z,100475.72
2022-08-30T14:58:49.547Z,100462.34
2022-08-30T15:01:17.567Z,100461.84
2022-08-30T15:03:47.396Z,100459.38
2022-08-30T15:06:15.984Z,100452.44
2022-08-30T15:08:47.754Z,100462.59
2022-08-30T15:11:20.167Z,100441.72
2022-08-30T15:13:48.572Z,100450.13
2022-08-30T15:16:19.755Z,100449.81
2022-08-30T15:18:50.124Z,100449.88
2022-08-30T15:21:24.876Z,100436.44
2022-08-30T15:23:53.805Z,100440.63
2022-08-30T15:26:22.198Z,100444.53
2022-08-30T15:28:51.837Z,100447.09
2022-08-30T15:31:20.806Z,100455.19
2022-08-30T15:33:52.416Z,100449.41
2022-08-30T15:36:20.863Z,100439.19
2022-08-30T15:38:48.893Z,100456.22
2022-08-30T15:41:17.020Z,100446.59
2022-08-30T15:43:44.943Z,100456.56
2022-08-30T15:46:19.303Z,100440.44
2022-08-30T15:48:47.810Z,100434.28
2022-08-30T15:51:17.841Z,100441.03
2022-08-30T15:53:46.865Z,100441.94
2022-08-30T15:56:15.310Z,100426.19
2022-08-30T15:58:53.268Z,100447.25
2022-08-30T16:01:30.223Z,100444.72
2022-08-30T16:03:58.915Z,100445.78
2022-08-30T16:06:30.706Z,100444.72
2022-08-30T16:08:59.485Z,100450.47
2022-08-30T16:11:27.839Z,100447.00
2022-08-30T16:13:58.912Z,100457.38
2022-08-30T16:16:27.478Z,100441.88
2022-08-30T16:18:55.969Z,100423.28
2022-08-30T16:21:26.251Z,100459.00
2022-08-30T16:23:58.157Z,100458.88
2022-08-30T16:26:27.263Z,100446.34
2022-08-30T16:28:56.089Z,100445.56
2022-08-30T16:31:26.046Z,100442.38
2022-08-30T16:33:55.524Z,100447.50
2022-08-30T16:36:30.646Z,100446.03
2022-08-30T16:39:00.859Z,100431.91
2022-08-30T16:41:29.204Z,100447.50
2022-08-30T16:44:00.554Z,100447.41
2022-08-30T16:46:28.566Z,100451.81
2022-08-30T16:48:58.307Z,100438.22
2022-08-30T16:51:28.020Z,100434.88
2022-08-30T16:53:56.950Z,100442.28
2022-08-30T16:56:28.057Z,100433.25
2022-08-30T16:59:01.825Z,100439.19
2022-08-30T17:01:32.040Z,100434.06
2022-08-30T17:04:00.861Z,100444.19
2022-08-30T17:06:28.956Z,100441.88
2022-08-30T17:08:57.151Z,100450.72
2022-08-30T17:11:27.063Z,100447.56
2022-08-30T17:13:55.150Z,100459.06
2022-08-30T17:16:28.056Z,100445.78
2022-08-30T17:18:59.477Z,100443.38
2022-08-30T17:21:29.275Z,100449.56
2022-08-30T17:24:01.743Z,100447.50
2022-08-30T17:26:32.996Z,100443.72
2022-08-30T17:29:01.335Z,100448.00
2022-08-30T17:31:30.898Z,100461.78
2022-08-30T17:34:03.232Z,100460.94
2022-08-30T17:36:31.946Z,100466.03
2022-08-30T17:39:00.015Z,100481.47
2022-08-30T17:41:28.797Z,100481.63
2022-08-30T17:43:58.102Z,100480.00
2022-08-30T17:46:26.140Z,100485.91
2022-08-30T17:49:01.027Z,100476.81
2022-08-30T17:51:30.049Z,100484.84
2022-08-30T17:53:58.479Z,100480.16
2022-08-30T17:56:30.398Z,100487.84
2022-08-30T17:59:07.921Z,100490.66
2022-08-30T18:01:37.804Z,100499.47
2022-08-30T18:04:06.616Z,100489.81
2022-08-30T18:06:35.168Z,100500.41
2022-08-30T18:09:03.206Z,100501.50
2022-08-30T18:11:31.153Z,100494.25
2022-08-30T18:13:59.047Z,100511.66
2022-08-30T18:16:28.435Z,100520.38
2022-08-30T18:18:57.182Z,100518.03
2022-08-30T18:21:25.923Z,100526.91
2022-08-30T18:23:56.542Z,100528.31
2022-08-30T18:26:24.849Z,100532.16
2022-08-30T18:28:53.321Z,100540.38
2022-08-30T18:31:21.504Z,100525.91
2022-08-30T18:33:50.913Z,100540.41
2022-08-30T18:36:19.187Z,100541.41
2022-08-30T18:38:47.202Z,100555.22
2022-08-30T18:41:15.601Z,100549.22
2022-08-30T18:43:44.821Z,100549.56
2022-08-30T18:46:14.844Z,100551.19
2022-08-30T18:48:43.271Z,100557.69
2022-08-30T18:51:14.264Z,100559.03
2022-08-30T18:53:42.818Z,100548.03
2022-08-30T18:56:12.631Z,100558.53
2022-08-30T18:58:44.520Z,100552.38
2022-08-30T19:01:13.053Z,100552.63
2022-08-30T19:03:43.677Z,100553.56
2022-08-30T19:06:13.983Z,100562.06
2022-08-30T19:08:45.746Z,100560.94
2022-08-30T19:11:14.121Z,100549.84
2022-08-30T19:13:42.062Z,100560.00
2022-08-30T19:16:12.049Z,100559.81
2022-08-30T19:18:41.624Z,100559.97
2022-08-30T19:21:13.578Z,100555.41
2022-08-30T19:23:43.455Z,100558.59
2022-08-30T19:26:11.343Z,100563.91
2022-08-30T19:28:39.395Z,100565.22
2022-08-30T19:31:07.709Z,100569.50
2022-08-30T19:33:36.076Z,100573.69
2022-08-30T19:36:06.785Z,100569.41
2022-08-30T19:38:35.644Z,100576.66
2022-08-30T19:41:05.498Z,100584.31
2022-08-30T19:43:33.455Z,100583.50
2022-08-30T19:46:01.770Z,100563.41
2022-08-30T19:48:32.716Z,100578.78
2022-08-30T19:51:06.584Z,100581.38
2022-08-30T19:53:35.149Z,100582.31
2022-08-30T19:56:05.352Z,100584.56
2022-08-30T19:58:33.228Z,100584.63
2022-08-30T20:01:10.997Z,100588.03
2022-08-30T20:03:41.482Z,100587.44
2022-08-30T20:06:09.764Z,100592.66
2022-08-30T20:08:38.184Z,100585.00
2022-08-30T20:11:07.558Z,100593.38
2022-08-30T20:13:36.940Z,100573.03
2022-08-30T20:16:06.014Z,100600.59
2022-08-30T20:18:33.970Z,100605.13
2022-08-30T20:21:01.862Z,100604.78
2022-08-30T20:23:30.521Z,100602.91
2022-08-30T20:26:05.463Z,100601.53
2022-08-30T20:28:34.711Z,100603.34
2022-08-30T20:31:05.707Z,100615.69
2022-08-30T20:33:36.391Z,100610.53
2022-08-30T20:36:05.321Z,100619.22
2022-08-30T20:38:33.243Z,100629.50
2022-08-30T20:41:02.661Z,100626.47
2022-08-30T20:43:31.550Z,100627.34
2022-08-30T20:46:00.802Z,100627.34
2022-08-30T20:48:28.830Z,100620.75
2022-08-30T20:50:56.813Z,100636.94
2022-08-30T20:53:25.079Z,100629.28
2022-08-30T20:55:52.937Z,100624.03
2022-08-30T20:58:20.829Z,100629.28
2022-08-30T21:00:51.354Z,100635.66
2022-08-30T21:03:27.681Z,100627.63
2022-08-30T21:05:56.388Z,100634.03
2022-08-30T21:08:24.964Z,100628.50
2022-08-30T21:10:53.447Z,100644.78
2022-08-30T21:13:21.850Z,100629.88
2022-08-30T21:15:52.485Z,100648.44
2022-08-30T21:18:22.094Z,100649.03
2022-08-30T21:20:50.236Z,100641.31
2022-08-30T21:23:18.149Z,100649.56
2022-08-30T21:25:46.072Z,100642.19
2022-08-30T21:28:13.970Z,100646.91
2022-08-30T21:30:45.121Z,100647.72
2022-08-30T21:33:12.947Z,100644.41
2022-08-30T21:35:59.860Z,100641.97
2022-08-30T21:38:27.683Z,100650.78
2022-08-30T21:40:55.542Z,100648.03
2022-08-30T21:43:23.458Z,100655.22
2022-08-30T21:45:53.513Z,100649.72
2022-08-30T21:48:21.511Z,100648.84
2022-08-30T21:50:50.778Z,100646.38
2022-08-30T21:53:19.248Z,100646.94
2022-08-30T21:55:47.993Z,100649.13
2022-08-30T21:58:16.252Z,100652.44
2022-08-30T22:00:44.162Z,100652.97
2022-08-30T22:03:12.429Z,100653.00
2022-08-30T22:05:40.805Z,100654.97
2022-08-30T22:08:10.097Z,100652.72
2022-08-30T22:10:37.996Z,100651.91
2022-08-30T22:13:10.015Z,100654.41
2022-08-30T22:15:38.576Z,100661.88
2022-08-30T22:18:07.395Z,100653.84
2022-08-30T22:20:35.737Z,100654.97
2022-08-30T22:23:04.143Z,100654.97
2022-08-30T22:25:33.650Z,100662.38
2022-08-30T22:28:01.536Z,100663.78
2022-08-30T22:30:32.489Z,100660.75
2022-08-30T22:33:00.370Z,100670.69
2022-08-30T22:35:28.660Z,100670.44
2022-08-30T22:37:56.542Z,100672.31
2022-08-30T22:40:24.449Z,100670.97
2022-08-30T22:42:53.800Z,100652.47
2022-08-30T22:45:21.835Z,100673.19
2022-08-30T22:47:49.862Z,100659.66
2022-08-30T22:50:17.900Z,100676.47
2022-08-30T22:52:45.909Z,100678.69
2022-08-30T22:55:13.862Z,100680.88
2022-08-30T22:57:42.493Z,100676.22
2022-08-30T23:00:16.064Z,100687.22
2022-08-30T23:02:44.156Z,100680.06
2022-08-30T23:05:13.116Z,100681.16
2022-08-30T23:07:41.513Z,100675.66
2022-08-30T23:10:11.404Z,100679.78
2022-08-30T23:12:39.459Z,100681.16
2022-08-30T23:15:10.235Z,100688.06
2022-08-30T23:20:09.580Z,100683.66
2022-08-30T23:22:40.238Z,100674.53
2022-08-30T23:25:26.512Z,100696.31
2022-08-30T23:28:20.819Z,100690.28
2022-08-30T23:31:06.819Z,100694.09
2022-08-30T23:33:53.670Z,100702.66
2022-08-30T23:36:38.930Z,100692.16
2022-08-30T23:39:24.174Z,100688.84
2022-08-30T23:42:09.362Z,100694.63
2022-08-30T23:44:54.677Z,100688.84
2022-08-30T23:47:39.977Z,100697.13
2022-08-30T23:50:27.292Z,100688.00
2022-08-30T23:53:12.655Z,100700.44
2022-08-30T23:55:58.953Z,100694.66
2022-08-30T23:58:44.282Z,100688.88
